createdAt,value
2023-03-01T00:00:39.926Z,73
2023-03-01T00:01:46.967Z,73
2023-03-01T00:02:54.094Z,73
2023-03-01T00:04:01.259Z,73
2023-03-01T00:05:08.408Z,73
2023-03-01T00:06:15.371Z,74
2023-03-01T00:07:22.324Z,74
2023-03-01T00:08:29.129Z,74
2023-03-01T00:09:36.090Z,74
2023-03-01T00:10:43.204Z,74
2023-03-01T00:11:50.148Z,74
2023-03-01T00:12:57.187Z,74
2023-03-01T00:14:04.242Z,74
2023-03-01T00:15:14.560Z,74
2023-03-01T00:16:23.063Z,74
2023-03-01T00:17:32.669Z,74
2023-03-01T00:18:39.655Z,74
2023-03-01T00:19:46.792Z,74
2023-03-01T00:20:53.847Z,75
2023-03-01T00:22:00.771Z,75
2023-03-01T00:23:11.131Z,75
2023-03-01T00:24:18.371Z,75
2023-03-01T00:25:25.350Z,75
2023-03-01T00:26:32.651Z,75
2023-03-01T00:27:39.259Z,75
2023-03-01T00:28:46.932Z,75
2023-03-01T00:29:53.884Z,75
2023-03-01T00:31:00.862Z,75
2023-03-01T00:32:07.841Z,74
2023-03-01T00:33:15.114Z,74
2023-03-01T00:34:23.852Z,74
2023-03-01T00:35:31.162Z,74
2023-03-01T00:36:38.352Z,74
2023-03-01T00:37:45.355Z,74
2023-03-01T00:38:52.271Z,74
2023-03-01T00:39:59.195Z,74
2023-03-01T00:41:08.243Z,74
2023-03-01T00:42:18.348Z,74
2023-03-01T00:43:28.324Z,74
2023-03-01T00:44:35.317Z,74
2023-03-01T00:45:42.787Z,74
2023-03-01T00:46:49.685Z,75
2023-03-01T00:47:56.664Z,75
2023-03-01T00:49:03.583Z,75
2023-03-01T00:50:10.483Z,75
2023-03-01T00:51:17.529Z,75
2023-03-01T00:52:24.372Z,75
2023-03-01T00:53:31.840Z,75
2023-03-01T00:54:45.634Z,75
2023-03-01T00:55:53.261Z,75
2023-03-01T00:57:00.201Z,75
2023-03-01T00:58:09.697Z,75
2023-03-01T00:59:16.621Z,75
2023-03-01T01:00:23.661Z,75
2023-03-01T01:01:30.675Z,75
2023-03-01T01:02:37.572Z,75
2023-03-01T01:03:44.540Z,75
2023-03-01T01:04:54.109Z,75
2023-03-01T01:06:01.036Z,75
2023-03-01T01:07:08.800Z,75
2023-03-01T01:08:15.835Z,75
2023-03-01T01:09:22.957Z,75
2023-03-01T01:10:29.890Z,75
2023-03-01T01:11:36.859Z,76
2023-03-01T01:12:44.032Z,76
2023-03-01T01:13:50.983Z,76
2023-03-01T01:14:58.118Z,76
2023-03-01T01:16:05.212Z,76
2023-03-01T01:17:12.051Z,76
2023-03-01T01:18:19.920Z,76
2023-03-01T01:19:27.050Z,76
2023-03-01T01:20:33.980Z,76
2023-03-01T01:21:41.579Z,76
2023-03-01T01:22:49.395Z,76
2023-03-01T01:23:56.372Z,76
2023-03-01T01:25:07.887Z,76
2023-03-01T01:26:17.453Z,76
2023-03-01T01:27:24.413Z,76
2023-03-01T01:28:31.347Z,76
2023-03-01T01:29:38.307Z,76
2023-03-01T01:30:45.260Z,76
2023-03-01T01:31:53.869Z,76
2023-03-01T01:33:01.394Z,76
2023-03-01T01:34:08.302Z,76
2023-03-01T01:35:21.375Z,76
2023-03-01T01:36:28.725Z,76
2023-03-01T01:37:35.376Z,76
2023-03-01T01:38:44.258Z,76
2023-03-01T01:39:54.952Z,76
2023-03-01T01:41:08.938Z,76
2023-03-01T01:42:16.876Z,76
2023-03-01T01:43:21.519Z,76
2023-03-01T01:44:31.310Z,76
2023-03-01T01:45:38.353Z,76
2023-03-01T01:46:45.371Z,76
2023-03-01T01:47:58.226Z,76
2023-03-01T01:49:05.334Z,77
2023-03-01T01:50:12.388Z,77
2023-03-01T01:51:19.315Z,77
2023-03-01T01:52:29.155Z,77
2023-03-01T01:53:36.406Z,77
2023-03-01T01:54:43.357Z,77
2023-03-01T01:55:56.736Z,77
2023-03-01T01:57:04.635Z,77
2023-03-01T01:58:11.603Z,77
2023-03-01T01:59:18.424Z,77
2023-03-01T02:00:26.082Z,77
2023-03-01T02:01:33.233Z,77
2023-03-01T02:02:42.639Z,77
2023-03-01T02:03:50.315Z,76
2023-03-01T02:04:57.132Z,76
2023-03-01T02:06:14.193Z,76
2023-03-01T02:07:26.941Z,76
2023-03-01T02:08:36.462Z,77
2023-03-01T02:09:43.425Z,77
2023-03-01T02:10:53.111Z,76
2023-03-01T02:12:00.613Z,77
2023-03-01T02:13:07.664Z,77
2023-03-01T02:14:14.623Z,77
2023-03-01T02:15:26.309Z,77
2023-03-01T02:16:33.714Z,77
2023-03-01T02:17:40.188Z,77
2023-03-01T02:18:47.093Z,77
2023-03-01T02:19:54.242Z,77
2023-03-01T02:21:15.904Z,77
2023-03-01T02:22:30.721Z,77
2023-03-01T02:23:37.678Z,77
2023-03-01T02:24:44.676Z,77
2023-03-01T02:25:57.706Z,77
2023-03-01T02:27:12.193Z,77
2023-03-01T02:28:19.168Z,77
2023-03-01T02:29:31.193Z,77
2023-03-01T02:30:38.125Z,77
2023-03-01T02:31:47.967Z,77
2023-03-01T02:32:54.873Z,77
2023-03-01T02:34:04.748Z,77
2023-03-01T02:35:17.221Z,77
2023-03-01T02:36:24.109Z,77
2023-03-01T02:37:31.236Z,78
2023-03-01T02:38:41.026Z,78
2023-03-01T02:39:48.092Z,78
2023-03-01T02:40:55.289Z,78
2023-03-01T02:42:05.241Z,78
2023-03-01T02:43:12.178Z,78
2023-03-01T02:44:19.329Z,78
2023-03-01T02:45:26.454Z,78
2023-03-01T02:46:33.747Z,78
2023-03-01T02:47:40.286Z,78
2023-03-01T02:48:47.250Z,78
2023-03-01T02:49:54.499Z,78
2023-03-01T02:51:01.498Z,78
2023-03-01T02:52:13.509Z,78
2023-03-01T02:53:30.581Z,78
2023-03-01T02:54:43.234Z,78
2023-03-01T02:55:55.161Z,78
2023-03-01T02:57:02.081Z,78
2023-03-01T02:58:08.956Z,78
2023-03-01T02:59:15.959Z,78
2023-03-01T03:00:23.018Z,78
2023-03-01T03:01:37.453Z,78
2023-03-01T03:02:44.586Z,78
2023-03-01T03:03:51.708Z,78
2023-03-01T03:04:58.532Z,78
2023-03-01T03:06:13.628Z,78
2023-03-01T03:07:23.188Z,78
2023-03-01T03:08:31.056Z,78
2023-03-01T03:09:38.108Z,78
2023-03-01T03:10:44.972Z,78
2023-03-01T03:11:51.955Z,78
2023-03-01T03:12:58.946Z,78
2023-03-01T03:14:08.943Z,78
2023-03-01T03:15:15.871Z,78
2023-03-01T03:16:22.980Z,78
2023-03-01T03:17:29.838Z,78
2023-03-01T03:18:36.672Z,78
2023-03-01T03:19:43.590Z,78
2023-03-01T03:20:50.655Z,78
2023-03-01T03:21:57.639Z,78
2023-03-01T03:23:04.620Z,78
2023-03-01T03:24:11.561Z,78
2023-03-01T03:25:19.126Z,78
2023-03-01T03:26:25.981Z,78
2023-03-01T03:27:32.914Z,78
2023-03-01T03:28:39.882Z,78
2023-03-01T03:29:46.835Z,78
2023-03-01T03:30:53.733Z,78
2023-03-01T03:32:03.253Z,78
2023-03-01T03:33:12.749Z,78
2023-03-01T03:34:17.045Z,78
2023-03-01T03:35:24.068Z,78
2023-03-01T03:36:34.011Z,78
2023-03-01T03:37:41.049Z,78
2023-03-01T03:38:53.183Z,78
2023-03-01T03:40:00.271Z,78
2023-03-01T03:41:07.369Z,78
2023-03-01T03:42:18.155Z,78
2023-03-01T03:43:25.108Z,78
2023-03-01T03:44:34.328Z,78
2023-03-01T03:45:41.345Z,78
2023-03-01T03:46:48.251Z,78
2023-03-01T03:47:55.391Z,78
2023-03-01T03:49:02.436Z,78
2023-03-01T03:50:09.255Z,78
2023-03-01T03:51:19.658Z,78
2023-03-01T03:52:26.597Z,78
2023-03-01T03:53:33.561Z,78
2023-03-01T03:54:40.461Z,78
2023-03-01T03:55:47.530Z,78
2023-03-01T03:56:54.416Z,78
2023-03-01T03:58:01.440Z,78
2023-03-01T03:59:08.249Z,78
2023-03-01T04:00:15.604Z,78
2023-03-01T04:01:26.282Z,78
2023-03-01T04:02:33.311Z,78
2023-03-01T04:03:40.305Z,78
2023-03-01T04:05:05.664Z,78
2023-03-01T04:06:12.749Z,78
2023-03-01T04:07:19.801Z,78
2023-03-01T04:08:26.804Z,78
2023-03-01T04:09:33.719Z,78
2023-03-01T04:10:44.245Z,78
2023-03-01T04:11:51.195Z,78
2023-03-01T04:12:58.241Z,78
2023-03-01T04:14:08.833Z,78
2023-03-01T04:15:16.490Z,78
2023-03-01T04:16:23.557Z,78
2023-03-01T04:17:30.572Z,78
2023-03-01T04:18:38.157Z,78
2023-03-01T04:19:45.290Z,78
2023-03-01T04:20:55.283Z,78
2023-03-01T04:22:02.256Z,78
2023-03-01T04:23:09.220Z,78
2023-03-01T04:24:19.015Z,78
2023-03-01T04:25:26.002Z,78
2023-03-01T04:26:33.247Z,78
2023-03-01T04:27:39.953Z,78
2023-03-01T04:28:46.868Z,78
2023-03-01T04:29:53.734Z,78
2023-03-01T04:31:00.831Z,78
2023-03-01T04:32:07.889Z,78
2023-03-01T04:33:15.193Z,78
2023-03-01T04:34:22.185Z,78
2023-03-01T04:35:29.492Z,78
2023-03-01T04:36:36.837Z,78
2023-03-01T04:37:46.542Z,78
2023-03-01T04:38:53.582Z,78
2023-03-01T04:40:00.461Z,78
2023-03-01T04:41:07.582Z,78
2023-03-01T04:42:17.865Z,78
2023-03-01T04:43:24.931Z,78
2023-03-01T04:44:31.878Z,78
2023-03-01T04:45:38.880Z,78
2023-03-01T04:46:45.892Z,78
2023-03-01T04:47:52.810Z,78
2023-03-01T04:48:59.726Z,78
2023-03-01T04:50:06.973Z,78
2023-03-01T04:51:17.116Z,78
2023-03-01T04:52:23.963Z,79
2023-03-01T04:53:30.958Z,79
2023-03-01T04:54:38.150Z,79
2023-03-01T04:55:45.121Z,79
2023-03-01T04:56:52.065Z,79
2023-03-01T04:58:02.797Z,79
2023-03-01T04:59:09.898Z,79
2023-03-01T05:00:19.516Z,79
2023-03-01T05:01:27.270Z,79
2023-03-01T05:02:34.260Z,79
2023-03-01T05:03:43.454Z,79
2023-03-01T05:04:47.972Z,79
2023-03-01T05:05:54.869Z,79
2023-03-01T05:07:01.793Z,79
2023-03-01T05:08:08.689Z,79
2023-03-01T05:09:15.695Z,79
2023-03-01T05:10:22.522Z,79
2023-03-01T05:11:29.449Z,79
2023-03-01T05:12:39.446Z,79
2023-03-01T05:13:46.329Z,79
2023-03-01T05:14:53.342Z,79
2023-03-01T05:16:00.519Z,79
2023-03-01T05:17:07.684Z,79
2023-03-01T05:18:14.609Z,79
2023-03-01T05:19:21.525Z,79
2023-03-01T05:20:28.506Z,79
2023-03-01T05:21:35.489Z,79
2023-03-01T05:22:42.601Z,79
2023-03-01T05:23:49.896Z,79
2023-03-01T05:24:56.818Z,79
2023-03-01T05:26:03.773Z,79
2023-03-01T05:27:10.653Z,79
2023-03-01T05:28:17.617Z,79
2023-03-01T05:29:24.579Z,79
2023-03-01T05:30:31.478Z,79
2023-03-01T05:31:38.385Z,79
2023-03-01T05:32:45.294Z,79
2023-03-01T05:33:57.052Z,79
2023-03-01T05:35:05.662Z,79
2023-03-01T05:36:12.750Z,79
2023-03-01T05:37:19.788Z,79
2023-03-01T05:38:26.706Z,79
2023-03-01T05:39:33.534Z,79
2023-03-01T05:40:40.401Z,80
2023-03-01T05:41:47.306Z,79
2023-03-01T05:42:57.972Z,79
2023-03-01T05:44:05.030Z,79
2023-03-01T05:45:11.997Z,79
2023-03-01T05:46:19.000Z,79
2023-03-01T05:47:25.933Z,79
2023-03-01T05:48:32.798Z,79
2023-03-01T05:49:39.972Z,79
2023-03-01T05:50:46.825Z,79
2023-03-01T05:51:53.686Z,79
2023-03-01T05:53:00.702Z,79
2023-03-01T05:54:15.980Z,79
2023-03-01T05:55:22.935Z,79
2023-03-01T05:56:30.517Z,79
2023-03-01T05:57:40.319Z,79
2023-03-01T05:58:47.492Z,79
2023-03-01T05:59:54.636Z,79
2023-03-01T06:01:01.573Z,79
2023-03-01T06:02:08.557Z,79
2023-03-01T06:03:15.536Z,80
2023-03-01T06:04:22.546Z,80
2023-03-01T06:05:29.449Z,80
2023-03-01T06:06:36.284Z,79
2023-03-01T06:07:43.189Z,79
2023-03-01T06:08:50.160Z,80
2023-03-01T06:09:57.114Z,79
2023-03-01T06:11:03.929Z,79
2023-03-01T06:12:12.494Z,79
2023-03-01T06:13:17.803Z,79
2023-03-01T06:14:25.001Z,79
2023-03-01T06:15:32.627Z,79
2023-03-01T06:16:39.573Z,79
2023-03-01T06:17:46.670Z,80
2023-03-01T06:18:54.530Z,80
2023-03-01T06:20:04.433Z,80
2023-03-01T06:21:14.949Z,80
2023-03-01T06:22:24.520Z,80
2023-03-01T06:23:31.989Z,80
2023-03-01T06:24:39.443Z,80
2023-03-01T06:25:49.126Z,80
2023-03-01T06:26:56.794Z,80
2023-03-01T06:28:04.133Z,80
2023-03-01T06:29:14.102Z,80
2023-03-01T06:30:21.673Z,80
2023-03-01T06:31:29.248Z,80
2023-03-01T06:32:36.734Z,80
2023-03-01T06:33:46.641Z,80
2023-03-01T06:34:56.473Z,80
2023-03-01T06:36:03.601Z,80
2023-03-01T06:37:10.782Z,80
2023-03-01T06:38:28.168Z,80
2023-03-01T06:39:39.194Z,80
2023-03-01T06:40:46.512Z,80
2023-03-01T06:42:00.299Z,80
2023-03-01T06:43:10.438Z,80
2023-03-01T06:44:20.474Z,80
2023-03-01T06:45:30.060Z,80
2023-03-01T06:46:46.832Z,80
2023-03-01T06:47:55.071Z,80
2023-03-01T06:49:08.434Z,80
2023-03-01T06:50:19.075Z,80
2023-03-01T06:51:26.817Z,80
2023-03-01T06:52:37.868Z,79
2023-03-01T06:53:46.124Z,79
2023-03-01T06:54:53.891Z,79
2023-03-01T06:56:01.158Z,79
2023-03-01T06:57:08.343Z,79
2023-03-01T06:58:15.536Z,79
2023-03-01T06:59:22.662Z,79
2023-03-01T07:00:38.752Z,79
2023-03-01T07:01:45.803Z,79
2023-03-01T07:02:52.883Z,79
2023-03-01T07:03:59.894Z,79
2023-03-01T07:05:07.520Z,79
2023-03-01T07:06:24.172Z,79
2023-03-01T07:07:31.710Z,79
2023-03-01T07:08:38.853Z,79
2023-03-01T07:09:46.553Z,79
2023-03-01T07:10:54.037Z,79
2023-03-01T07:12:03.960Z,79
2023-03-01T07:13:12.067Z,79
2023-03-01T07:14:19.057Z,79
2023-03-01T07:15:26.292Z,79
2023-03-01T07:16:33.993Z,78
2023-03-01T07:17:44.930Z,78
2023-03-01T07:19:02.207Z,77
2023-03-01T07:20:09.477Z,77
2023-03-01T07:21:30.416Z,77
2023-03-01T07:22:37.432Z,76
2023-03-01T07:23:44.542Z,76
2023-03-01T07:24:53.561Z,75
2023-03-01T07:26:01.184Z,75
2023-03-01T07:27:08.370Z,74
2023-03-01T07:28:18.152Z,74
2023-03-01T07:29:25.403Z,74
2023-03-01T07:30:34.448Z,73
2023-03-01T07:31:52.296Z,73
2023-03-01T07:33:02.758Z,73
2023-03-01T07:34:13.533Z,74
2023-03-01T07:35:20.509Z,74
2023-03-01T07:36:27.741Z,74
2023-03-01T07:37:45.814Z,73
2023-03-01T07:38:52.981Z,73
2023-03-01T07:40:00.317Z,73
2023-03-01T07:41:09.762Z,74
2023-03-01T07:42:18.401Z,75
2023-03-01T07:43:26.927Z,75
2023-03-01T07:44:35.716Z,74
2023-03-01T07:45:49.516Z,73
2023-03-01T07:46:56.721Z,73
2023-03-01T07:48:04.041Z,73
2023-03-01T07:49:25.554Z,73
2023-03-01T07:50:33.092Z,72
2023-03-01T07:51:49.547Z,72
2023-03-01T07:52:57.456Z,71
2023-03-01T07:54:07.183Z,71
2023-03-01T07:55:14.638Z,70
2023-03-01T07:56:26.027Z,70
2023-03-01T07:57:42.773Z,70
2023-03-01T07:58:59.599Z,69
2023-03-01T08:00:10.414Z,69
2023-03-01T08:01:17.741Z,70
2023-03-01T08:02:26.021Z,69
2023-03-01T08:03:37.715Z,69
2023-03-01T08:04:44.808Z,68
2023-03-01T08:05:57.215Z,68
2023-03-01T08:07:04.362Z,68
2023-03-01T08:08:14.530Z,68
2023-03-01T08:09:25.104Z,67
2023-03-01T08:10:31.976Z,67
2023-03-01T08:11:39.722Z,67
2023-03-01T08:12:49.407Z,68
2023-03-01T08:13:58.933Z,68
2023-03-01T08:15:08.562Z,68
2023-03-01T08:16:15.636Z,68
2023-03-01T08:17:23.133Z,68
2023-03-01T08:18:30.520Z,68
2023-03-01T08:19:40.323Z,68
2023-03-01T08:20:47.377Z,68
2023-03-01T08:21:55.130Z,68
2023-03-01T08:23:04.772Z,68
2023-03-01T08:24:11.772Z,67
2023-03-01T08:25:19.070Z,66
2023-03-01T08:26:26.392Z,66
2023-03-01T08:27:38.233Z,66
2023-03-01T08:28:46.403Z,66
2023-03-01T08:29:56.201Z,66
2023-03-01T08:31:05.835Z,64
2023-03-01T08:32:23.307Z,64
2023-03-01T08:33:35.006Z,64
2023-03-01T08:34:42.544Z,64
2023-03-01T08:35:53.203Z,64
2023-03-01T08:37:08.568Z,64
2023-03-01T08:38:15.509Z,64
2023-03-01T08:39:23.422Z,64
2023-03-01T08:40:33.090Z,64
2023-03-01T08:41:41.340Z,64
2023-03-01T08:42:49.773Z,64
2023-03-01T08:43:58.660Z,63
2023-03-01T08:45:05.741Z,62
2023-03-01T08:46:13.786Z,63
2023-03-01T08:47:25.098Z,62
2023-03-01T08:48:32.159Z,61
2023-03-01T08:49:40.033Z,61
2023-03-01T08:50:48.416Z,61
2023-03-01T08:51:58.476Z,62
2023-03-01T08:53:05.884Z,62
2023-03-01T08:54:12.973Z,61
2023-03-01T08:55:20.130Z,61
2023-03-01T08:56:32.209Z,61
2023-03-01T08:57:41.670Z,61
2023-03-01T08:58:49.405Z,61
2023-03-01T08:59:56.448Z,61
2023-03-01T09:01:06.324Z,60
2023-03-01T09:02:13.774Z,60
2023-03-01T09:03:21.427Z,60
2023-03-01T09:04:33.696Z,59
2023-03-01T09:05:42.059Z,59
2023-03-01T09:06:51.991Z,59
2023-03-01T09:08:01.530Z,59
2023-03-01T09:09:09.446Z,59
2023-03-01T09:10:22.924Z,59
2023-03-01T09:11:29.976Z,59
2023-03-01T09:12:39.261Z,59
2023-03-01T09:13:46.289Z,60
2023-03-01T09:14:59.935Z,59
2023-03-01T09:16:08.352Z,59
2023-03-01T09:17:15.545Z,59
2023-03-01T09:18:25.692Z,59
2023-03-01T09:19:36.724Z,59
2023-03-01T09:20:43.745Z,59
2023-03-01T09:21:59.857Z,59
2023-03-01T09:23:06.923Z,59
2023-03-01T09:24:27.601Z,59
2023-03-01T09:25:45.661Z,59
2023-03-01T09:26:54.236Z,59
2023-03-01T09:28:04.433Z,59
2023-03-01T09:29:12.279Z,59
2023-03-01T09:30:19.978Z,59
2023-03-01T09:31:30.545Z,59
2023-03-01T09:32:39.014Z,59
2023-03-01T09:33:56.124Z,59
2023-03-01T09:35:06.125Z,58
2023-03-01T09:36:14.698Z,58
2023-03-01T09:37:21.740Z,58
2023-03-01T09:38:33.283Z,58
2023-03-01T09:39:42.342Z,57
2023-03-01T09:41:00.382Z,57
2023-03-01T09:42:10.958Z,55
2023-03-01T09:43:22.090Z,55
2023-03-01T09:44:41.973Z,55
2023-03-01T09:45:58.008Z,55
2023-03-01T09:47:08.060Z,55
2023-03-01T09:48:20.452Z,53
2023-03-01T09:49:28.832Z,54
2023-03-01T09:50:36.626Z,53
2023-03-01T09:51:44.486Z,53
2023-03-01T09:53:02.000Z,53
2023-03-01T09:54:12.076Z,53
2023-03-01T09:55:19.203Z,53
2023-03-01T09:56:34.770Z,53
2023-03-01T09:57:45.580Z,52
2023-03-01T09:58:52.587Z,52
2023-03-01T10:00:11.060Z,52
2023-03-01T10:01:26.785Z,53
2023-03-01T10:02:41.619Z,52
2023-03-01T10:03:48.645Z,52
2023-03-01T10:05:10.322Z,52
2023-03-01T10:06:34.276Z,52
2023-03-01T10:07:30.728Z,53
2023-03-01T10:08:49.366Z,51
2023-03-01T10:10:04.046Z,51
2023-03-01T10:11:11.422Z,51
2023-03-01T10:12:24.614Z,51
2023-03-01T10:13:34.480Z,52
2023-03-01T10:14:46.584Z,52
2023-03-01T10:16:01.344Z,52
2023-03-01T10:17:20.411Z,52
2023-03-01T10:18:32.830Z,51
2023-03-01T10:19:40.221Z,51
2023-03-01T10:20:47.572Z,51
2023-03-01T10:22:02.538Z,51
2023-03-01T10:23:18.992Z,51
2023-03-01T10:24:29.113Z,52
2023-03-01T10:25:36.474Z,52
2023-03-01T10:26:55.158Z,51
2023-03-01T10:28:05.235Z,51
2023-03-01T10:29:22.503Z,51
2023-03-01T10:30:35.477Z,51
2023-03-01T10:31:42.591Z,51
2023-03-01T10:32:49.738Z,51
2023-03-01T10:33:56.914Z,51
2023-03-01T10:35:07.305Z,51
2023-03-01T10:36:19.477Z,51
2023-03-01T10:37:27.211Z,51
2023-03-01T10:38:34.279Z,51
2023-03-01T10:39:54.412Z,50
2023-03-01T10:41:04.941Z,50
2023-03-01T10:42:12.322Z,50
2023-03-01T10:43:24.384Z,50
2023-03-01T10:44:31.475Z,50
2023-03-01T10:45:38.526Z,50
2023-03-01T10:46:47.791Z,50
2023-03-01T10:47:58.276Z,49
2023-03-01T10:49:11.947Z,51
2023-03-01T10:50:24.846Z,51
2023-03-01T10:51:32.845Z,50
2023-03-01T10:52:39.657Z,50
2023-03-01T10:53:46.657Z,50
2023-03-01T10:54:53.724Z,50
2023-03-01T10:56:00.775Z,51
2023-03-01T10:57:17.267Z,50
2023-03-01T10:58:29.455Z,50
2023-03-01T10:59:39.413Z,50
2023-03-01T11:00:48.977Z,50
2023-03-01T11:02:03.540Z,50
2023-03-01T11:03:15.842Z,49
2023-03-01T11:04:30.128Z,50
2023-03-01T11:05:37.085Z,50
2023-03-01T11:06:54.446Z,50
2023-03-01T11:08:05.728Z,50
2023-03-01T11:09:13.976Z,50
2023-03-01T11:10:26.630Z,49
2023-03-01T11:11:33.788Z,49
2023-03-01T11:12:40.978Z,49
2023-03-01T11:13:48.406Z,49
2023-03-01T11:15:03.646Z,48
2023-03-01T11:16:11.309Z,49
2023-03-01T11:17:18.250Z,49
2023-03-01T11:18:46.767Z,49
2023-03-01T11:19:45.173Z,48
2023-03-01T11:20:52.523Z,48
2023-03-01T11:22:00.402Z,49
2023-03-01T11:23:10.129Z,49
2023-03-01T11:24:19.253Z,49
2023-03-01T11:25:29.113Z,49
2023-03-01T11:26:38.971Z,49
2023-03-01T11:27:46.216Z,49
2023-03-01T11:28:53.951Z,48
2023-03-01T11:30:00.952Z,47
2023-03-01T11:31:13.655Z,47
2023-03-01T11:32:21.182Z,48
2023-03-01T11:33:28.238Z,49
2023-03-01T11:34:38.056Z,48
2023-03-01T11:35:48.247Z,49
2023-03-01T11:36:58.449Z,48
2023-03-01T11:38:05.765Z,48
2023-03-01T11:39:22.914Z,48
2023-03-01T11:40:35.002Z,48
2023-03-01T11:41:45.056Z,48
2023-03-01T11:42:52.182Z,48
2023-03-01T11:44:04.855Z,49
2023-03-01T11:45:21.858Z,49
2023-03-01T11:46:29.524Z,48
2023-03-01T11:47:36.727Z,48
2023-03-01T11:48:52.253Z,48
2023-03-01T11:50:04.443Z,49
2023-03-01T11:51:12.546Z,48
2023-03-01T11:52:24.644Z,48
2023-03-01T11:53:44.688Z,48
2023-03-01T11:55:01.937Z,47
2023-03-01T11:56:14.954Z,47
2023-03-01T11:57:34.094Z,47
2023-03-01T11:58:42.779Z,47
2023-03-01T11:59:54.837Z,47
2023-03-01T12:01:04.372Z,47
2023-03-01T12:02:19.416Z,47
2023-03-01T12:03:34.383Z,47
2023-03-01T12:04:49.015Z,47
2023-03-01T12:06:01.418Z,47
2023-03-01T12:07:16.706Z,47
2023-03-01T12:08:31.394Z,46
2023-03-01T12:09:44.018Z,47
2023-03-01T12:10:56.283Z,46
2023-03-01T12:12:11.054Z,46
2023-03-01T12:13:20.970Z,46
2023-03-01T12:14:28.178Z,46
2023-03-01T12:15:46.906Z,46
2023-03-01T12:16:54.479Z,45
2023-03-01T12:18:09.557Z,45
2023-03-01T12:19:21.652Z,46
2023-03-01T12:20:41.517Z,46
2023-03-01T12:21:54.942Z,45
2023-03-01T12:23:20.303Z,46
2023-03-01T12:24:32.309Z,46
2023-03-01T12:25:39.583Z,46
2023-03-01T12:26:59.652Z,46
2023-03-01T12:28:11.738Z,47
2023-03-01T12:29:18.667Z,47
2023-03-01T12:30:28.467Z,48
2023-03-01T12:31:45.749Z,47
2023-03-01T12:33:02.376Z,47
2023-03-01T12:34:19.555Z,47
2023-03-01T12:35:35.418Z,47
2023-03-01T12:36:50.353Z,47
2023-03-01T12:38:05.372Z,46
2023-03-01T12:39:15.538Z,46
2023-03-01T12:40:33.001Z,46
2023-03-01T12:41:45.596Z,46
2023-03-01T12:43:00.629Z,47
2023-03-01T12:44:17.905Z,46
2023-03-01T12:45:32.862Z,47
2023-03-01T12:46:45.754Z,47
2023-03-01T12:47:55.942Z,47
2023-03-01T12:49:03.599Z,47
2023-03-01T12:50:20.067Z,47
2023-03-01T12:51:32.483Z,47
2023-03-01T12:52:39.462Z,47
2023-03-01T12:53:54.652Z,47
2023-03-01T12:55:01.810Z,47
2023-03-01T12:56:09.062Z,46
2023-03-01T12:57:18.592Z,46
2023-03-01T12:58:27.193Z,46
2023-03-01T12:59:41.028Z,47
2023-03-01T13:01:00.558Z,46
2023-03-01T13:02:15.866Z,46
2023-03-01T13:03:30.461Z,45
2023-03-01T13:04:42.637Z,46
2023-03-01T13:05:54.728Z,45
2023-03-01T13:07:11.902Z,45
2023-03-01T13:08:23.884Z,46
2023-03-01T13:09:39.188Z,46
2023-03-01T13:10:52.187Z,46
2023-03-01T13:12:15.840Z,46
2023-03-01T13:13:24.304Z,46
2023-03-01T13:14:32.238Z,47
2023-03-01T13:15:41.166Z,47
2023-03-01T13:16:49.105Z,47
2023-03-01T13:17:56.077Z,47
2023-03-01T13:19:08.960Z,47
2023-03-01T13:20:21.294Z,47
2023-03-01T13:21:32.221Z,46
2023-03-01T13:22:54.229Z,46
2023-03-01T13:23:54.496Z,46
2023-03-01T13:25:01.461Z,46
2023-03-01T13:26:18.568Z,47
2023-03-01T13:27:26.252Z,46
2023-03-01T13:28:33.457Z,46
2023-03-01T13:29:43.602Z,46
2023-03-01T13:30:50.695Z,46
2023-03-01T13:32:00.698Z,46
2023-03-01T13:33:09.935Z,46
2023-03-01T13:34:28.767Z,46
2023-03-01T13:35:43.783Z,46
2023-03-01T13:36:50.688Z,45
2023-03-01T13:37:57.661Z,45
2023-03-01T13:39:06.606Z,45
2023-03-01T13:40:18.597Z,45
2023-03-01T13:41:25.508Z,45
2023-03-01T13:42:43.268Z,45
2023-03-01T13:43:55.671Z,46
2023-03-01T13:45:03.423Z,45
2023-03-01T13:46:11.046Z,45
2023-03-01T13:47:24.005Z,46
2023-03-01T13:48:30.776Z,46
2023-03-01T13:49:46.138Z,46
2023-03-01T13:50:50.797Z,46
2023-03-01T13:52:02.991Z,46
2023-03-01T13:53:09.942Z,46
2023-03-01T13:54:19.062Z,46
2023-03-01T13:55:34.001Z,46
2023-03-01T13:56:41.187Z,46
2023-03-01T13:57:50.146Z,46
2023-03-01T13:59:02.665Z,46
2023-03-01T14:00:15.564Z,47
2023-03-01T14:01:36.419Z,47
2023-03-01T14:02:43.286Z,46
2023-03-01T14:03:50.430Z,46
2023-03-01T14:04:59.929Z,47
2023-03-01T14:06:14.469Z,46
2023-03-01T14:07:18.230Z,47
2023-03-01T14:08:25.524Z,46
2023-03-01T14:09:34.364Z,47
2023-03-01T14:10:44.043Z,47
2023-03-01T14:12:03.027Z,47
2023-03-01T14:13:18.106Z,47
2023-03-01T14:14:33.263Z,47
2023-03-01T14:15:48.840Z,47
2023-03-01T14:17:05.676Z,46
2023-03-01T14:18:23.074Z,46
2023-03-01T14:19:34.220Z,45
2023-03-01T14:20:39.992Z,45
2023-03-01T14:21:47.073Z,45
2023-03-01T14:22:54.863Z,45
2023-03-01T14:24:02.633Z,45
2023-03-01T14:25:11.599Z,45
2023-03-01T14:26:19.997Z,45
2023-03-01T14:27:27.202Z,45
2023-03-01T14:28:39.979Z,45
2023-03-01T14:29:47.860Z,45
2023-03-01T14:31:02.854Z,45
2023-03-01T14:32:14.785Z,45
2023-03-01T14:33:21.789Z,44
2023-03-01T14:34:28.669Z,44
2023-03-01T14:35:35.965Z,44
2023-03-01T14:36:42.811Z,44
2023-03-01T14:37:49.624Z,44
2023-03-01T14:38:56.527Z,44
2023-03-01T14:40:06.930Z,44
2023-03-01T14:41:13.966Z,44
2023-03-01T14:42:23.876Z,43
2023-03-01T14:43:30.744Z,43
2023-03-01T14:44:40.717Z,43
2023-03-01T14:45:47.823Z,43
2023-03-01T14:46:55.431Z,43
2023-03-01T14:48:02.331Z,43
2023-03-01T14:49:09.259Z,43
2023-03-01T14:50:21.181Z,43
2023-03-01T14:51:30.994Z,43
2023-03-01T14:52:43.142Z,43
2023-03-01T14:53:51.372Z,43
2023-03-01T14:54:57.013Z,43
2023-03-01T14:56:05.705Z,43
2023-03-01T14:57:18.132Z,43
2023-03-01T14:58:27.037Z,43
2023-03-01T14:59:34.270Z,43
2023-03-01T15:00:44.612Z,43
2023-03-01T15:01:51.621Z,44
2023-03-01T15:02:58.540Z,43
2023-03-01T15:04:05.478Z,44
2023-03-01T15:05:12.778Z,44
2023-03-01T15:06:21.702Z,43
2023-03-01T15:07:30.502Z,43
2023-03-01T15:08:47.748Z,43
2023-03-01T15:09:57.754Z,43
2023-03-01T15:11:05.870Z,43
2023-03-01T15:12:21.806Z,43
2023-03-01T15:13:31.538Z,43
2023-03-01T15:14:40.522Z,43
2023-03-01T15:15:47.641Z,43
2023-03-01T15:16:54.449Z,43
2023-03-01T15:18:02.886Z,43
2023-03-01T15:19:09.380Z,43
2023-03-01T15:20:18.365Z,43
2023-03-01T15:21:25.544Z,43
2023-03-01T15:22:35.775Z,43
2023-03-01T15:23:43.806Z,43
2023-03-01T15:24:53.695Z,43
2023-03-01T15:26:03.655Z,43
2023-03-01T15:27:10.734Z,43
2023-03-01T15:28:17.808Z,43
2023-03-01T15:29:33.595Z,43
2023-03-01T15:30:42.382Z,43
2023-03-01T15:31:49.350Z,43
2023-03-01T15:33:07.328Z,43
2023-03-01T15:34:26.081Z,43
2023-03-01T15:35:39.268Z,43
2023-03-01T15:36:47.243Z,43
2023-03-01T15:37:55.512Z,43
2023-03-01T15:39:02.864Z,43
2023-03-01T15:40:10.237Z,43
2023-03-01T15:41:29.405Z,43
2023-03-01T15:42:36.836Z,43
2023-03-01T15:43:46.649Z,43
2023-03-01T15:44:53.905Z,43
2023-03-01T15:46:14.573Z,43
2023-03-01T15:47:24.644Z,43
2023-03-01T15:48:35.085Z,43
2023-03-01T15:49:54.239Z,43
2023-03-01T15:50:52.543Z,43
2023-03-01T15:51:59.202Z,43
2023-03-01T15:53:07.606Z,43
2023-03-01T15:54:17.325Z,43
2023-03-01T15:55:24.203Z,43
2023-03-01T15:56:32.096Z,44
2023-03-01T15:57:38.906Z,44
2023-03-01T15:58:46.324Z,44
2023-03-01T15:59:55.444Z,44
2023-03-01T16:01:02.792Z,44
2023-03-01T16:02:09.620Z,44
2023-03-01T16:03:16.684Z,44
2023-03-01T16:04:28.136Z,44
2023-03-01T16:05:39.582Z,44
2023-03-01T16:06:46.678Z,44
2023-03-01T16:07:54.140Z,44
2023-03-01T16:09:01.056Z,45
2023-03-01T16:10:08.842Z,44
2023-03-01T16:11:16.400Z,45
2023-03-01T16:12:23.251Z,45
2023-03-01T16:13:32.966Z,45
2023-03-01T16:14:40.185Z,45
2023-03-01T16:15:47.044Z,45
2023-03-01T16:16:54.169Z,45
2023-03-01T16:18:04.055Z,45
2023-03-01T16:19:11.158Z,45
2023-03-01T16:20:27.839Z,46
2023-03-01T16:21:25.577Z,46
2023-03-01T16:22:33.094Z,46
2023-03-01T16:23:40.235Z,47
2023-03-01T16:24:47.203Z,47
2023-03-01T16:25:54.421Z,47
2023-03-01T16:27:07.115Z,47
2023-03-01T16:28:14.134Z,48
2023-03-01T16:29:22.532Z,48
2023-03-01T16:30:29.708Z,48